KCLK/CLK METAR and TAF weather

Enter ICAO airport designator
Station Type Date Time Source
KCLK METAR 2021/09/16 21:15 UTC NOAA

KCLK 162115Z AUTO 16009G16KT 10SM SCT070 SCT085 32/13 A2989 RMK AO2


Station Type Date Time Source
KCLK Decoded METAR 2021/09/16 21:15 UTC NOAA

Clinton, Clinton Regional Airport, OK, United States (KCLK) 35-32-17N 098-55-17W
Sep 16, 2021 - 05:15 PM EDT / 2021.09.16 2115 UTC
Wind: from the SSE (160 degrees) at 10 MPH (9 KT) gusting to 18 MPH (16 KT):0
Visibility: 10 mile(s):0
Sky conditions: partly cloudy
Temperature: 89 F (32 C)
Dew Point: 55 F (13 C)
Relative Humidity: 31%
Pressure (altimeter): 29.89 in. Hg (1012 hPa)
ob: KCLK 162115Z AUTO 16009G16KT 10SM SCT070 SCT085 32/13 A2989 RMK AO2
cycle: 21

Station Type Date Time Source
KCLK TAF UTC NOAA

Error!

Example: see airport list